Detall de PIREP

Printer-friendly versionPDF version

[2015/08/29 07:48:00]
Flight IATA:CT3243
Pilot Number:042
Company ICAO:CAT
Aircraft Type:B738/F
PAX:98
Departing Airport: LBSF
Destination Airport: LEPA
Alternate Airport:LEBL
Online: VATSIM
Route:OGOTA T228 UTEKA UY520 ESIRI UY88 VRANA UZ924 RIPAL UM603 MORSS
Flight Level:F360
No Slew and time accel
No pause
Crash detect
Detect pilot in Cockpit between each 30 and 45 minutes
07:48 Zero fuel Weight: 121806 Lbs, Fuel Weight: 46056 Lbs
07:49 VATSIM:LBSF 290630Z VRB01KT CAVOK 19/12 Q1025 NOSIG
07:49 VATSIM:LEPA 290630Z 06005KT 9999 FEW012 24/21 Q1019 NOSIG
07:59 Parking Brakes off
08:07 Take-off
08:07 Take off Weight: 167083 Lbs
08:07 Wind: 000º @ 001 Knots Heading: 275º
08:07 POS N42º 41´ 47´´ E023º 23´ 44´´
08:07 Flaps:4 at 177 Knots
08:07 Gear Up: 177 Knots
08:08 Flaps:3 at 185 Knots
08:08 Flaps:2 at 195 Knots
08:08 Flaps:1 at 204 Knots
08:09 Flaps:0 at 222 Knots
08:22 Wind:012º@012 Knots Heading: 316º Ground Speed: 458 Knots Altitude 25347 ft
08:32 TOC
08:32 Fuel Weight: 40651 Lb
08:37 Wind:061º@014 Knots Heading: 270º Ground Speed: 464 Knots Altitude 35964 ft
08:52 Wind:120º@025 Knots Heading: 239º Ground Speed: 469 Knots Altitude 35925 ft
09:03 TOD
09:03 Fuel Weight: 37801 Lb
09:07 Wind:130º@038 Knots Heading: 235º Ground Speed: 468 Knots Altitude 35882 ft
09:22 Wind:124º@040 Knots Heading: 234º Ground Speed: 472 Knots Altitude 35882 ft
09:37 Wind:110º@020 Knots Heading: 247º Ground Speed: 472 Knots Altitude 35882 ft
09:52 Wind:093º@012 Knots Heading: 259º Ground Speed: 469 Knots Altitude 35889 ft
09:52 TOC
09:52 Fuel Weight: 33328 Lb
10:05 TOD
10:05 Fuel Weight: 32213 Lb
10:07 Wind:110º@016 Knots Heading: 258º Ground Speed: 474 Knots Altitude 31807 ft
10:22 Wind:105º@008 Knots Heading: 273º Ground Speed: 285 Knots Altitude 7601 ft
10:26 Gear Down: 229 Knots
10:27 Flaps:1 at 227 Knots
10:27 Flaps:2 at 228 Knots
10:27 Flaps:3 at 229 Knots
10:27 Flaps:4 at 228 Knots
10:27 Flaps:5 at 228 Knots
10:27 Flaps:6 at 229 Knots
10:27 Flaps:7 at 226 Knots
10:28 Flaps:8 at 156 Knots
10:29 TouchDown:Rate -97 ft/min Speed: 142 Knots
10:29 VATSIM:LEPA 290900Z 07010KT 030V100 9999 FEW020 30/21 Q1019 NOSIG
10:29 Land
10:29 Wind:071º@010 Knots
10:29 Heading: 237º
10:29 Flight Duration: 02:22
10:29 Landing Weight: 153108 Lbs
10:29 POS N39º 32´ 53´´ E002º 44´ 47´´
10:34 Parking brakes on
10:34 Block to Block Duration: 02:35
10:34 Final Fuel: 31011 Lbls
10:34 Spent Fuel: 15044 Lbls
10:34 Flight Length: 1036 NM
10:34 TOD Land Length: 138 NM

Exportar CSV

Powered by Drupal - Modified by Danger4k